sensor_id;sensor_type;location;lat;lon;timestamp;P1;durP1;ratioP1;P2;durP2;ratioP2
61407;SDS011;47274;43.054;25.146;2023-05-29T00:00:13;17.30;;;6.88;;
61407;SDS011;47274;43.054;25.146;2023-05-29T00:02:41;18.55;;;6.50;;
61407;SDS011;47274;43.054;25.146;2023-05-29T00:05:12;14.25;;;6.95;;
61407;SDS011;47274;43.054;25.146;2023-05-29T00:07:39;18.08;;;7.00;;
61407;SDS011;47274;43.054;25.146;2023-05-29T00:10:06;14.05;;;6.13;;
61407;SDS011;47274;43.054;25.146;2023-05-29T00:12:34;12.35;;;6.90;;
61407;SDS011;47274;43.054;25.146;2023-05-29T00:15:00;13.02;;;6.78;;
61407;SDS011;47274;43.054;25.146;2023-05-29T00:17:26;12.48;;;6.50;;
61407;SDS011;47274;43.054;25.146;2023-05-29T00:19:53;14.60;;;7.20;;
61407;SDS011;47274;43.054;25.146;2023-05-29T00:22:18;14.38;;;7.28;;
61407;SDS011;47274;43.054;25.146;2023-05-29T00:24:44;17.48;;;7.28;;
61407;SDS011;47274;43.054;25.146;2023-05-29T00:27:10;22.85;;;7.28;;
61407;SDS011;47274;43.054;25.146;2023-05-29T00:29:36;18.33;;;7.00;;
61407;SDS011;47274;43.054;25.146;2023-05-29T00:32:04;27.58;;;7.72;;
61407;SDS011;47274;43.054;25.146;2023-05-29T00:34:30;94.13;;;9.68;;
61407;SDS011;47274;43.054;25.146;2023-05-29T00:36:56;46.35;;;8.82;;
61407;SDS011;47274;43.054;25.146;2023-05-29T00:39:23;19.67;;;6.93;;
61407;SDS011;47274;43.054;25.146;2023-05-29T00:41:48;28.13;;;7.85;;
61407;SDS011;47274;43.054;25.146;2023-05-29T00:44:21;115.60;;;11.55;;
61407;SDS011;47274;43.054;25.146;2023-05-29T00:46:47;57.13;;;8.35;;
61407;SDS011;47274;43.054;25.146;2023-05-29T00:49:16;42.45;;;7.82;;
61407;SDS011;47274;43.054;25.146;2023-05-29T00:51:43;36.63;;;7.47;;
61407;SDS011;47274;43.054;25.146;2023-05-29T00:54:13;38.95;;;7.25;;
61407;SDS011;47274;43.054;25.146;2023-05-29T00:56:43;50.08;;;8.35;;
61407;SDS011;47274;43.054;25.146;2023-05-29T00:59:09;47.28;;;8.57;;
61407;SDS011;47274;43.054;25.146;2023-05-29T01:01:37;35.38;;;8.38;;
61407;SDS011;47274;43.054;25.146;2023-05-29T01:04:05;51.20;;;9.02;;
61407;SDS011;47274;43.054;25.146;2023-05-29T01:06:35;25.92;;;8.88;;
61407;SDS011;47274;43.054;25.146;2023-05-29T01:09:01;19.15;;;8.90;;
61407;SDS011;47274;43.054;25.146;2023-05-29T01:17:13;22.75;;;8.48;;
61407;SDS011;47274;43.054;25.146;2023-05-29T01:25:34;98.50;;;10.23;;
61407;SDS011;47274;43.054;25.146;2023-05-29T01:28:15;120.60;;;12.20;;
61407;SDS011;47274;43.054;25.146;2023-05-29T01:30:47;65.03;;;10.38;;
61407;SDS011;47274;43.054;25.146;2023-05-29T01:33:15;123.25;;;13.10;;
61407;SDS011;47274;43.054;25.146;2023-05-29T01:35:41;77.53;;;11.60;;
61407;SDS011;47274;43.054;25.146;2023-05-29T01:38:07;41.33;;;9.27;;
61407;SDS011;47274;43.054;25.146;2023-05-29T01:40:33;15.75;;;7.90;;
61407;SDS011;47274;43.054;25.146;2023-05-29T01:42:59;22.38;;;9.25;;
61407;SDS011;47274;43.054;25.146;2023-05-29T01:45:25;24.13;;;9.60;;
61407;SDS011;47274;43.054;25.146;2023-05-29T01:47:52;40.28;;;10.23;;
61407;SDS011;47274;43.054;25.146;2023-05-29T01:50:18;34.95;;;10.38;;
61407;SDS011;47274;43.054;25.146;2023-05-29T01:52:44;45.65;;;9.80;;
61407;SDS011;47274;43.054;25.146;2023-05-29T01:55:10;38.78;;;10.13;;
61407;SDS011;47274;43.054;25.146;2023-05-29T01:57:36;22.67;;;9.48;;
61407;SDS011;47274;43.054;25.146;2023-05-29T02:00:03;28.20;;;9.35;;
61407;SDS011;47274;43.054;25.146;2023-05-29T02:02:40;88.70;;;11.15;;
61407;SDS011;47274;43.054;25.146;2023-05-29T02:05:09;33.75;;;9.07;;
61407;SDS011;47274;43.054;25.146;2023-05-29T02:07:36;41.83;;;11.18;;
61407;SDS011;47274;43.054;25.146;2023-05-29T02:10:05;79.00;;;11.90;;
61407;SDS011;47274;43.054;25.146;2023-05-29T02:12:31;35.63;;;9.30;;
61407;SDS011;47274;43.054;25.146;2023-05-29T02:14:57;66.30;;;11.77;;
61407;SDS011;47274;43.054;25.146;2023-05-29T02:17:25;49.38;;;10.90;;
61407;SDS011;47274;43.054;25.146;2023-05-29T02:19:52;69.15;;;10.73;;
61407;SDS011;47274;43.054;25.146;2023-05-29T02:22:18;62.47;;;11.25;;
61407;SDS011;47274;43.054;25.146;2023-05-29T02:24:44;46.45;;;10.38;;
61407;SDS011;47274;43.054;25.146;2023-05-29T02:27:10;24.15;;;9.65;;
61407;SDS011;47274;43.054;25.146;2023-05-29T02:29:35;37.95;;;9.95;;
61407;SDS011;47274;43.054;25.146;2023-05-29T02:32:01;65.28;;;11.10;;
61407;SDS011;47274;43.054;25.146;2023-05-29T02:34:28;27.05;;;10.75;;
61407;SDS011;47274;43.054;25.146;2023-05-29T02:36:54;91.38;;;14.07;;
61407;SDS011;47274;43.054;25.146;2023-05-29T02:39:20;20.38;;;9.52;;
61407;SDS011;47274;43.054;25.146;2023-05-29T02:41:46;48.47;;;11.38;;
61407;SDS011;47274;43.054;25.146;2023-05-29T02:44:12;22.52;;;8.93;;
61407;SDS011;47274;43.054;25.146;2023-05-29T02:46:38;43.67;;;10.88;;
61407;SDS011;47274;43.054;25.146;2023-05-29T02:49:04;138.55;;;16.13;;
61407;SDS011;47274;43.054;25.146;2023-05-29T02:51:30;181.05;;;14.77;;
61407;SDS011;47274;43.054;25.146;2023-05-29T02:53:57;124.05;;;14.32;;
61407;SDS011;47274;43.054;25.146;2023-05-29T02:56:24;79.85;;;12.07;;
61407;SDS011;47274;43.054;25.146;2023-05-29T02:58:50;112.20;;;12.90;;
61407;SDS011;47274;43.054;25.146;2023-05-29T03:01:16;95.55;;;13.93;;
61407;SDS011;47274;43.054;25.146;2023-05-29T03:03:42;113.45;;;12.73;;
61407;SDS011;47274;43.054;25.146;2023-05-29T03:06:08;33.40;;;9.52;;
61407;SDS011;47274;43.054;25.146;2023-05-29T03:08:35;56.20;;;10.13;;
61407;SDS011;47274;43.054;25.146;2023-05-29T03:11:08;214.38;;;19.60;;
61407;SDS011;47274;43.054;25.146;2023-05-29T03:13:36;82.03;;;12.98;;
61407;SDS011;47274;43.054;25.146;2023-05-29T03:16:05;137.65;;;12.82;;
61407;SDS011;47274;43.054;25.146;2023-05-29T03:18:35;68.38;;;12.20;;
61407;SDS011;47274;43.054;25.146;2023-05-29T03:21:01;95.43;;;12.90;;
61407;SDS011;47274;43.054;25.146;2023-05-29T03:23:29;102.38;;;12.15;;
61407;SDS011;47274;43.054;25.146;2023-05-29T03:25:55;228.65;;;17.88;;
61407;SDS011;47274;43.054;25.146;2023-05-29T03:28:21;39.42;;;9.25;;
61407;SDS011;47274;43.054;25.146;2023-05-29T03:30:48;143.35;;;14.00;;
61407;SDS011;47274;43.054;25.146;2023-05-29T03:33:17;170.88;;;13.15;;
61407;SDS011;47274;43.054;25.146;2023-05-29T03:35:59;53.75;;;10.77;;
61407;SDS011;47274;43.054;25.146;2023-05-29T03:38:26;141.13;;;14.25;;
61407;SDS011;47274;43.054;25.146;2023-05-29T03:40:55;31.83;;;9.77;;
61407;SDS011;47274;43.054;25.146;2023-05-29T03:43:21;32.13;;;9.07;;
61407;SDS011;47274;43.054;25.146;2023-05-29T03:45:47;37.60;;;9.73;;
61407;SDS011;47274;43.054;25.146;2023-05-29T03:48:13;115.00;;;10.45;;
61407;SDS011;47274;43.054;25.146;2023-05-29T03:50:42;25.75;;;8.70;;
61407;SDS011;47274;43.054;25.146;2023-05-29T03:53:11;39.70;;;10.07;;
61407;SDS011;47274;43.054;25.146;2023-05-29T03:55:37;35.58;;;9.90;;
61407;SDS011;47274;43.054;25.146;2023-05-29T03:58:04;24.80;;;9.38;;
61407;SDS011;47274;43.054;25.146;2023-05-29T04:00:30;129.70;;;12.02;;
61407;SDS011;47274;43.054;25.146;2023-05-29T04:02:59;104.75;;;10.57;;
61407;SDS011;47274;43.054;25.146;2023-05-29T04:05:25;102.18;;;13.18;;
61407;SDS011;47274;43.054;25.146;2023-05-29T04:07:52;58.72;;;9.38;;
61407;SDS011;47274;43.054;25.146;2023-05-29T04:10:17;43.85;;;9.60;;
61407;SDS011;47274;43.054;25.146;2023-05-29T04:12:43;21.35;;;8.65;;
61407;SDS011;47274;43.054;25.146;2023-05-29T04:15:09;42.85;;;9.00;;
61407;SDS011;47274;43.054;25.146;2023-05-29T04:17:35;75.97;;;10.02;;
61407;SDS011;47274;43.054;25.146;2023-05-29T04:20:01;128.40;;;13.07;;
61407;SDS011;47274;43.054;25.146;2023-05-29T04:22:33;65.82;;;11.27;;
61407;SDS011;47274;43.054;25.146;2023-05-29T04:25:01;20.60;;;11.00;;
61407;SDS011;47274;43.054;25.146;2023-05-29T04:27:29;43.42;;;12.57;;
61407;SDS011;47274;43.054;25.146;2023-05-29T04:29:58;35.70;;;11.13;;
61407;SDS011;47274;43.054;25.146;2023-05-29T04:32:29;18.63;;;10.10;;
61407;SDS011;47274;43.054;25.146;2023-05-29T04:34:56;29.75;;;12.25;;
61407;SDS011;47274;43.054;25.146;2023-05-29T04:37:22;26.48;;;11.90;;
61407;SDS011;47274;43.054;25.146;2023-05-29T04:39:55;27.65;;;13.85;;
61407;SDS011;47274;43.054;25.146;2023-05-29T04:42:25;26.83;;;13.32;;
61407;SDS011;47274;43.054;25.146;2023-05-29T04:44:52;24.42;;;13.52;;
61407;SDS011;47274;43.054;25.146;2023-05-29T04:47:19;25.10;;;14.13;;
61407;SDS011;47274;43.054;25.146;2023-05-29T04:49:45;28.90;;;15.18;;
61407;SDS011;47274;43.054;25.146;2023-05-29T04:52:15;25.70;;;15.35;;
61407;SDS011;47274;43.054;25.146;2023-05-29T04:54:42;27.40;;;15.68;;
61407;SDS011;47274;43.054;25.146;2023-05-29T04:57:09;25.48;;;14.85;;
61407;SDS011;47274;43.054;25.146;2023-05-29T04:59:36;26.02;;;14.70;;
61407;SDS011;47274;43.054;25.146;2023-05-29T05:02:02;23.58;;;13.68;;
61407;SDS011;47274;43.054;25.146;2023-05-29T05:04:28;24.67;;;14.43;;
61407;SDS011;47274;43.054;25.146;2023-05-29T05:06:53;24.20;;;14.13;;
61407;SDS011;47274;43.054;25.146;2023-05-29T05:09:19;24.23;;;14.55;;
61407;SDS011;47274;43.054;25.146;2023-05-29T05:11:45;22.67;;;13.40;;
61407;SDS011;47274;43.054;25.146;2023-05-29T05:14:11;24.30;;;14.32;;
61407;SDS011;47274;43.054;25.146;2023-05-29T05:16:37;23.05;;;13.05;;
61407;SDS011;47274;43.054;25.146;2023-05-29T05:19:03;26.17;;;14.82;;
61407;SDS011;47274;43.054;25.146;2023-05-29T05:21:32;24.90;;;14.55;;
61407;SDS011;47274;43.054;25.146;2023-05-29T05:23:59;26.42;;;15.55;;
61407;SDS011;47274;43.054;25.146;2023-05-29T05:26:26;23.90;;;14.05;;
61407;SDS011;47274;43.054;25.146;2023-05-29T05:28:52;25.77;;;15.85;;
61407;SDS011;47274;43.054;25.146;2023-05-29T05:31:18;26.00;;;14.75;;
61407;SDS011;47274;43.054;25.146;2023-05-29T05:33:44;23.80;;;13.65;;
61407;SDS011;47274;43.054;25.146;2023-05-29T05:36:10;25.65;;;14.38;;
61407;SDS011;47274;43.054;25.146;2023-05-29T05:38:38;26.00;;;14.82;;
61407;SDS011;47274;43.054;25.146;2023-05-29T05:41:04;24.83;;;14.30;;
61407;SDS011;47274;43.054;25.146;2023-05-29T05:43:32;23.95;;;15.00;;
61407;SDS011;47274;43.054;25.146;2023-05-29T05:46:06;24.20;;;14.63;;
61407;SDS011;47274;43.054;25.146;2023-05-29T05:48:34;21.67;;;13.07;;
61407;SDS011;47274;43.054;25.146;2023-05-29T05:51:00;25.45;;;14.60;;
61407;SDS011;47274;43.054;25.146;2023-05-29T05:53:26;24.08;;;15.32;;
61407;SDS011;47274;43.054;25.146;2023-05-29T05:55:52;22.75;;;13.23;;
61407;SDS011;47274;43.054;25.146;2023-05-29T05:58:19;23.65;;;13.52;;
61407;SDS011;47274;43.054;25.146;2023-05-29T06:00:45;23.85;;;14.38;;
61407;SDS011;47274;43.054;25.146;2023-05-29T06:03:11;24.65;;;14.63;;
61407;SDS011;47274;43.054;25.146;2023-05-29T06:06:09;22.92;;;13.75;;
61407;SDS011;47274;43.054;25.146;2023-05-29T06:08:37;23.50;;;13.10;;
61407;SDS011;47274;43.054;25.146;2023-05-29T06:11:05;23.58;;;14.32;;
61407;SDS011;47274;43.054;25.146;2023-05-29T06:13:34;24.33;;;13.15;;
61407;SDS011;47274;43.054;25.146;2023-05-29T06:16:06;26.10;;;13.95;;
61407;SDS011;47274;43.054;25.146;2023-05-29T06:18:34;24.60;;;14.40;;
61407;SDS011;47274;43.054;25.146;2023-05-29T06:21:01;22.85;;;13.68;;
61407;SDS011;47274;43.054;25.146;2023-05-29T06:23:28;25.48;;;15.23;;
61407;SDS011;47274;43.054;25.146;2023-05-29T06:25:55;24.73;;;14.25;;
61407;SDS011;47274;43.054;25.146;2023-05-29T06:28:21;22.98;;;13.23;;
61407;SDS011;47274;43.054;25.146;2023-05-29T06:30:47;24.38;;;14.60;;
61407;SDS011;47274;43.054;25.146;2023-05-29T06:33:13;25.42;;;15.68;;
61407;SDS011;47274;43.054;25.146;2023-05-29T06:35:41;25.35;;;16.20;;
61407;SDS011;47274;43.054;25.146;2023-05-29T06:38:07;24.92;;;15.25;;
61407;SDS011;47274;43.054;25.146;2023-05-29T06:40:34;26.20;;;15.98;;
61407;SDS011;47274;43.054;25.146;2023-05-29T06:43:00;25.15;;;15.27;;
61407;SDS011;47274;43.054;25.146;2023-05-29T06:45:44;27.05;;;16.33;;
61407;SDS011;47274;43.054;25.146;2023-05-29T06:48:11;26.98;;;17.13;;
61407;SDS011;47274;43.054;25.146;2023-05-29T06:50:38;26.08;;;16.38;;
61407;SDS011;47274;43.054;25.146;2023-05-29T06:53:24;25.92;;;16.15;;
61407;SDS011;47274;43.054;25.146;2023-05-29T06:55:50;28.23;;;17.67;;
61407;SDS011;47274;43.054;25.146;2023-05-29T06:58:16;28.27;;;17.85;;
61407;SDS011;47274;43.054;25.146;2023-05-29T07:00:42;30.38;;;19.15;;
61407;SDS011;47274;43.054;25.146;2023-05-29T07:03:25;27.50;;;17.00;;
61407;SDS011;47274;43.054;25.146;2023-05-29T07:05:52;26.65;;;18.35;;
61407;SDS011;47274;43.054;25.146;2023-05-29T07:08:19;25.35;;;16.40;;
61407;SDS011;47274;43.054;25.146;2023-05-29T07:10:45;26.30;;;17.08;;
61407;SDS011;47274;43.054;25.146;2023-05-29T07:13:15;27.90;;;16.60;;
61407;SDS011;47274;43.054;25.146;2023-05-29T07:15:41;27.98;;;18.08;;
61407;SDS011;47274;43.054;25.146;2023-05-29T07:18:08;26.88;;;16.63;;
61407;SDS011;47274;43.054;25.146;2023-05-29T07:20:35;26.90;;;18.15;;
61407;SDS011;47274;43.054;25.146;2023-05-29T07:23:02;27.58;;;16.88;;
61407;SDS011;47274;43.054;25.146;2023-05-29T07:25:29;26.23;;;16.85;;
61407;SDS011;47274;43.054;25.146;2023-05-29T07:27:56;25.13;;;16.58;;
61407;SDS011;47274;43.054;25.146;2023-05-29T07:30:22;25.77;;;16.15;;
61407;SDS011;47274;43.054;25.146;2023-05-29T07:32:49;26.67;;;17.25;;
61407;SDS011;47274;43.054;25.146;2023-05-29T07:35:15;26.35;;;16.92;;
61407;SDS011;47274;43.054;25.146;2023-05-29T07:37:41;26.25;;;16.92;;
61407;SDS011;47274;43.054;25.146;2023-05-29T07:40:09;26.00;;;16.77;;
61407;SDS011;47274;43.054;25.146;2023-05-29T07:42:58;25.15;;;16.98;;
61407;SDS011;47274;43.054;25.146;2023-05-29T07:45:33;29.98;;;21.38;;
61407;SDS011;47274;43.054;25.146;2023-05-29T07:47:59;29.73;;;20.00;;
61407;SDS011;47274;43.054;25.146;2023-05-29T07:50:26;43.05;;;27.27;;
61407;SDS011;47274;43.054;25.146;2023-05-29T07:52:51;32.88;;;21.02;;
61407;SDS011;47274;43.054;25.146;2023-05-29T07:55:18;28.17;;;17.63;;
61407;SDS011;47274;43.054;25.146;2023-05-29T07:57:44;28.58;;;17.50;;
61407;SDS011;47274;43.054;25.146;2023-05-29T08:00:10;26.80;;;16.77;;
61407;SDS011;47274;43.054;25.146;2023-05-29T08:02:46;27.38;;;16.98;;
61407;SDS011;47274;43.054;25.146;2023-05-29T08:05:20;27.05;;;16.85;;
61407;SDS011;47274;43.054;25.146;2023-05-29T08:07:46;24.58;;;15.98;;
61407;SDS011;47274;43.054;25.146;2023-05-29T08:10:13;25.90;;;15.80;;
61407;SDS011;47274;43.054;25.146;2023-05-29T08:12:40;27.40;;;16.98;;
61407;SDS011;47274;43.054;25.146;2023-05-29T08:15:07;27.10;;;16.10;;
61407;SDS011;47274;43.054;25.146;2023-05-29T08:17:35;26.25;;;16.38;;
61407;SDS011;47274;43.054;25.146;2023-05-29T08:20:01;24.67;;;16.23;;
61407;SDS011;47274;43.054;25.146;2023-05-29T08:22:31;24.58;;;16.13;;
61407;SDS011;47274;43.054;25.146;2023-05-29T08:24:59;24.48;;;15.13;;
61407;SDS011;47274;43.054;25.146;2023-05-29T08:27:25;25.42;;;16.25;;
61407;SDS011;47274;43.054;25.146;2023-05-29T08:29:50;25.08;;;15.48;;
61407;SDS011;47274;43.054;25.146;2023-05-29T08:32:16;25.10;;;15.43;;
61407;SDS011;47274;43.054;25.146;2023-05-29T08:34:42;25.63;;;15.90;;
61407;SDS011;47274;43.054;25.146;2023-05-29T08:37:10;24.70;;;15.10;;
61407;SDS011;47274;43.054;25.146;2023-05-29T08:39:37;25.48;;;15.70;;
61407;SDS011;47274;43.054;25.146;2023-05-29T08:42:21;25.10;;;15.48;;
61407;SDS011;47274;43.054;25.146;2023-05-29T08:44:55;40.10;;;15.32;;
61407;SDS011;47274;43.054;25.146;2023-05-29T08:47:26;29.27;;;14.07;;
61407;SDS011;47274;43.054;25.146;2023-05-29T08:49:53;22.52;;;12.10;;
61407;SDS011;47274;43.054;25.146;2023-05-29T08:52:22;24.48;;;13.77;;
61407;SDS011;47274;43.054;25.146;2023-05-29T08:54:52;22.25;;;11.68;;
61407;SDS011;47274;43.054;25.146;2023-05-29T08:57:19;22.30;;;13.15;;
61407;SDS011;47274;43.054;25.146;2023-05-29T08:59:46;21.27;;;12.48;;
61407;SDS011;47274;43.054;25.146;2023-05-29T09:02:16;21.63;;;13.18;;
61407;SDS011;47274;43.054;25.146;2023-05-29T09:04:42;22.27;;;13.63;;
61407;SDS011;47274;43.054;25.146;2023-05-29T09:07:17;21.55;;;12.13;;
61407;SDS011;47274;43.054;25.146;2023-05-29T09:09:45;23.08;;;13.35;;
61407;SDS011;47274;43.054;25.146;2023-05-29T09:12:11;22.20;;;13.05;;
61407;SDS011;47274;43.054;25.146;2023-05-29T09:14:40;22.25;;;13.65;;
61407;SDS011;47274;43.054;25.146;2023-05-29T09:17:08;25.00;;;14.25;;
61407;SDS011;47274;43.054;25.146;2023-05-29T09:19:35;24.30;;;14.40;;
61407;SDS011;47274;43.054;25.146;2023-05-29T09:22:04;23.80;;;14.05;;
61407;SDS011;47274;43.054;25.146;2023-05-29T09:24:35;22.77;;;14.43;;
61407;SDS011;47274;43.054;25.146;2023-05-29T09:27:02;22.85;;;14.07;;
61407;SDS011;47274;43.054;25.146;2023-05-29T09:29:32;21.52;;;13.45;;
61407;SDS011;47274;43.054;25.146;2023-05-29T09:32:08;22.70;;;13.73;;
61407;SDS011;47274;43.054;25.146;2023-05-29T09:34:35;22.98;;;14.30;;
61407;SDS011;47274;43.054;25.146;2023-05-29T09:37:02;21.58;;;12.23;;
61407;SDS011;47274;43.054;25.146;2023-05-29T09:39:34;21.58;;;13.32;;
61407;SDS011;47274;43.054;25.146;2023-05-29T09:42:09;21.83;;;12.43;;
61407;SDS011;47274;43.054;25.146;2023-05-29T09:44:35;21.63;;;11.73;;
61407;SDS011;47274;43.054;25.146;2023-05-29T09:47:01;20.85;;;11.63;;
61407;SDS011;47274;43.054;25.146;2023-05-29T09:49:27;20.77;;;12.38;;
61407;SDS011;47274;43.054;25.146;2023-05-29T09:51:53;19.10;;;11.27;;
61407;SDS011;47274;43.054;25.146;2023-05-29T09:54:20;19.85;;;10.30;;
61407;SDS011;47274;43.054;25.146;2023-05-29T09:56:46;19.05;;;10.15;;
61407;SDS011;47274;43.054;25.146;2023-05-29T09:59:13;20.65;;;12.15;;
61407;SDS011;47274;43.054;25.146;2023-05-29T10:01:41;18.38;;;10.57;;
61407;SDS011;47274;43.054;25.146;2023-05-29T10:04:12;18.92;;;10.18;;
61407;SDS011;47274;43.054;25.146;2023-05-29T10:06:44;20.95;;;10.40;;
61407;SDS011;47274;43.054;25.146;2023-05-29T10:09:14;19.63;;;10.00;;
61407;SDS011;47274;43.054;25.146;2023-05-29T10:11:43;18.63;;;10.07;;
61407;SDS011;47274;43.054;25.146;2023-05-29T10:14:14;17.58;;;9.57;;
61407;SDS011;47274;43.054;25.146;2023-05-29T10:16:46;38.90;;;23.52;;
61407;SDS011;47274;43.054;25.146;2023-05-29T10:19:19;25.08;;;14.00;;
61407;SDS011;47274;43.054;25.146;2023-05-29T10:21:52;26.92;;;16.08;;
61407;SDS011;47274;43.054;25.146;2023-05-29T10:24:21;23.80;;;14.13;;
61407;SDS011;47274;43.054;25.146;2023-05-29T10:26:48;21.90;;;12.48;;
61407;SDS011;47274;43.054;25.146;2023-05-29T10:29:19;19.08;;;10.57;;
61407;SDS011;47274;43.054;25.146;2023-05-29T10:37:40;20.52;;;9.93;;
61407;SDS011;47274;43.054;25.146;2023-05-29T10:40:10;20.10;;;10.70;;
61407;SDS011;47274;43.054;25.146;2023-05-29T10:42:40;17.90;;;10.40;;
61407;SDS011;47274;43.054;25.146;2023-05-29T10:45:09;18.77;;;10.00;;
61407;SDS011;47274;43.054;25.146;2023-05-29T10:47:37;18.55;;;10.48;;
61407;SDS011;47274;43.054;25.146;2023-05-29T10:50:04;19.73;;;10.35;;
61407;SDS011;47274;43.054;25.146;2023-05-29T10:52:31;17.85;;;9.05;;
61407;SDS011;47274;43.054;25.146;2023-05-29T10:54:58;18.90;;;10.30;;
61407;SDS011;47274;43.054;25.146;2023-05-29T10:57:24;16.58;;;8.70;;
61407;SDS011;47274;43.054;25.146;2023-05-29T10:59:58;18.73;;;9.80;;
61407;SDS011;47274;43.054;25.146;2023-05-29T11:02:25;17.67;;;9.75;;
61407;SDS011;47274;43.054;25.146;2023-05-29T11:07:55;109.45;;;15.85;;
61407;SDS011;47274;43.054;25.146;2023-05-29T11:10:41;21.02;;;11.77;;
61407;SDS011;47274;43.054;25.146;2023-05-29T11:13:22;25.52;;;12.85;;
61407;SDS011;47274;43.054;25.146;2023-05-29T11:18:41;23.73;;;14.48;;
61407;SDS011;47274;43.054;25.146;2023-05-29T11:21:15;22.25;;;12.48;;
61407;SDS011;47274;43.054;25.146;2023-05-29T11:23:51;19.77;;;10.82;;
61407;SDS011;47274;43.054;25.146;2023-05-29T11:26:21;19.23;;;10.80;;
61407;SDS011;47274;43.054;25.146;2023-05-29T11:28:48;19.00;;;10.55;;
61407;SDS011;47274;43.054;25.146;2023-05-29T11:31:15;19.00;;;10.65;;
61407;SDS011;47274;43.054;25.146;2023-05-29T11:33:48;18.55;;;10.27;;
61407;SDS011;47274;43.054;25.146;2023-05-29T11:36:18;19.50;;;11.48;;
61407;SDS011;47274;43.054;25.146;2023-05-29T11:38:46;17.42;;;9.88;;
61407;SDS011;47274;43.054;25.146;2023-05-29T11:41:12;20.65;;;10.82;;
61407;SDS011;47274;43.054;25.146;2023-05-29T11:43:39;20.88;;;11.50;;
61407;SDS011;47274;43.054;25.146;2023-05-29T11:46:17;20.25;;;12.32;;
61407;SDS011;47274;43.054;25.146;2023-05-29T11:48:45;22.02;;;12.32;;
61407;SDS011;47274;43.054;25.146;2023-05-29T11:51:12;16.92;;;9.98;;
61407;SDS011;47274;43.054;25.146;2023-05-29T11:53:40;18.38;;;9.50;;
61407;SDS011;47274;43.054;25.146;2023-05-29T11:56:08;17.40;;;9.75;;
61407;SDS011;47274;43.054;25.146;2023-05-29T11:58:36;19.92;;;10.43;;
61407;SDS011;47274;43.054;25.146;2023-05-29T12:01:06;19.63;;;9.95;;
61407;SDS011;47274;43.054;25.146;2023-05-29T12:03:42;18.13;;;10.10;;
61407;SDS011;47274;43.054;25.146;2023-05-29T12:06:09;17.13;;;9.40;;
61407;SDS011;47274;43.054;25.146;2023-05-29T12:08:38;18.95;;;11.07;;
61407;SDS011;47274;43.054;25.146;2023-05-29T12:11:04;15.90;;;8.90;;
61407;SDS011;47274;43.054;25.146;2023-05-29T12:13:31;17.00;;;9.52;;
61407;SDS011;47274;43.054;25.146;2023-05-29T12:15:57;17.95;;;8.98;;
61407;SDS011;47274;43.054;25.146;2023-05-29T12:18:28;15.00;;;8.48;;
61407;SDS011;47274;43.054;25.146;2023-05-29T12:20:58;16.65;;;8.57;;
61407;SDS011;47274;43.054;25.146;2023-05-29T12:23:26;15.48;;;8.88;;
61407;SDS011;47274;43.054;25.146;2023-05-29T12:25:53;18.50;;;10.10;;
61407;SDS011;47274;43.054;25.146;2023-05-29T12:28:20;18.38;;;9.80;;
61407;SDS011;47274;43.054;25.146;2023-05-29T12:30:47;18.45;;;9.43;;
61407;SDS011;47274;43.054;25.146;2023-05-29T12:33:27;19.05;;;9.70;;
61407;SDS011;47274;43.054;25.146;2023-05-29T12:36:06;14.52;;;8.63;;
61407;SDS011;47274;43.054;25.146;2023-05-29T12:38:46;18.88;;;9.52;;
61407;SDS011;47274;43.054;25.146;2023-05-29T12:41:29;15.13;;;8.27;;
61407;SDS011;47274;43.054;25.146;2023-05-29T12:44:01;12.85;;;6.43;;
61407;SDS011;47274;43.054;25.146;2023-05-29T12:46:35;11.73;;;4.82;;
61407;SDS011;47274;43.054;25.146;2023-05-29T12:51:40;8.68;;;3.90;;
61407;SDS011;47274;43.054;25.146;2023-05-29T12:54:07;6.10;;;3.47;;
61407;SDS011;47274;43.054;25.146;2023-05-29T12:56:32;8.25;;;3.70;;
61407;SDS011;47274;43.054;25.146;2023-05-29T12:58:58;9.05;;;3.60;;
61407;SDS011;47274;43.054;25.146;2023-05-29T13:01:24;6.15;;;3.10;;
61407;SDS011;47274;43.054;25.146;2023-05-29T13:03:50;7.15;;;3.67;;
61407;SDS011;47274;43.054;25.146;2023-05-29T13:06:16;9.38;;;3.20;;
61407;SDS011;47274;43.054;25.146;2023-05-29T13:08:42;3.72;;;2.80;;
61407;SDS011;47274;43.054;25.146;2023-05-29T13:11:08;5.18;;;3.40;;
61407;SDS011;47274;43.054;25.146;2023-05-29T13:13:34;5.85;;;3.20;;
61407;SDS011;47274;43.054;25.146;2023-05-29T13:16:00;17.60;;;7.20;;
61407;SDS011;47274;43.054;25.146;2023-05-29T13:18:25;4.18;;;3.03;;
61407;SDS011;47274;43.054;25.146;2023-05-29T13:20:51;5.47;;;3.25;;
61407;SDS011;47274;43.054;25.146;2023-05-29T13:23:17;4.70;;;2.90;;
61407;SDS011;47274;43.054;25.146;2023-05-29T13:25:43;5.68;;;3.53;;
61407;SDS011;47274;43.054;25.146;2023-05-29T13:28:09;4.95;;;2.67;;
61407;SDS011;47274;43.054;25.146;2023-05-29T13:30:34;6.28;;;2.92;;
61407;SDS011;47274;43.054;25.146;2023-05-29T13:33:00;3.70;;;2.90;;
61407;SDS011;47274;43.054;25.146;2023-05-29T13:35:26;3.08;;;2.60;;
61407;SDS011;47274;43.054;25.146;2023-05-29T13:37:52;2.97;;;2.33;;
61407;SDS011;47274;43.054;25.146;2023-05-29T13:40:17;2.75;;;2.50;;
61407;SDS011;47274;43.054;25.146;2023-05-29T13:42:43;3.78;;;2.63;;
61407;SDS011;47274;43.054;25.146;2023-05-29T13:45:09;3.00;;;2.70;;
61407;SDS011;47274;43.054;25.146;2023-05-29T13:47:36;3.50;;;2.78;;
61407;SDS011;47274;43.054;25.146;2023-05-29T13:50:02;3.75;;;2.60;;
61407;SDS011;47274;43.054;25.146;2023-05-29T13:52:29;3.30;;;2.65;;
61407;SDS011;47274;43.054;25.146;2023-05-29T13:54:54;4.07;;;2.80;;
61407;SDS011;47274;43.054;25.146;2023-05-29T13:57:20;3.15;;;2.80;;
61407;SDS011;47274;43.054;25.146;2023-05-29T13:59:46;4.07;;;2.92;;
61407;SDS011;47274;43.054;25.146;2023-05-29T14:02:12;4.55;;;3.10;;
61407;SDS011;47274;43.054;25.146;2023-05-29T14:04:38;7.70;;;3.83;;
61407;SDS011;47274;43.054;25.146;2023-05-29T14:07:04;5.82;;;3.00;;
61407;SDS011;47274;43.054;25.146;2023-05-29T14:09:31;4.85;;;3.30;;
61407;SDS011;47274;43.054;25.146;2023-05-29T14:11:59;5.10;;;3.10;;
61407;SDS011;47274;43.054;25.146;2023-05-29T14:14:27;5.30;;;3.38;;
61407;SDS011;47274;43.054;25.146;2023-05-29T14:16:53;3.63;;;2.80;;
61407;SDS011;47274;43.054;25.146;2023-05-29T14:19:20;5.38;;;3.20;;
61407;SDS011;47274;43.054;25.146;2023-05-29T14:21:46;6.95;;;3.45;;
61407;SDS011;47274;43.054;25.146;2023-05-29T14:24:12;4.38;;;3.30;;
61407;SDS011;47274;43.054;25.146;2023-05-29T14:26:39;5.25;;;3.40;;
61407;SDS011;47274;43.054;25.146;2023-05-29T14:29:04;5.78;;;3.33;;
61407;SDS011;47274;43.054;25.146;2023-05-29T14:31:31;4.75;;;3.17;;
61407;SDS011;47274;43.054;25.146;2023-05-29T14:33:57;4.97;;;3.22;;
61407;SDS011;47274;43.054;25.146;2023-05-29T14:36:22;5.60;;;3.30;;
61407;SDS011;47274;43.054;25.146;2023-05-29T14:38:48;3.40;;;3.10;;
61407;SDS011;47274;43.054;25.146;2023-05-29T14:41:14;3.58;;;2.83;;
61407;SDS011;47274;43.054;25.146;2023-05-29T14:43:43;4.82;;;3.10;;